Disclaimer

Please do not use the information listed here in-flight or in-navigation, as they are not provided to us by the airports but are provided by volunteers, so they might be outdated.

Search


Regions


Airport information page

Radio informations:
Tower (TWR) - 118.0 MHz
Automatic Terminal Information Service (ATIS) - 120.95 MHz
Approach (APP) - 125.1 MHz

Airport informations:
Latitude: 42° 34' 10.50" N
Longitude: 027° 30' 54.85" E
Elevation: 135 feet - 41 meters
Operating hours: 24 hour operations
Operating agency: Civil government, landing fees and diplomatic clearance may be required
Timezone: UTC+2(+3DT) - Last Sunday in March to last Sunday in October
Fuel: Unknown fuel type or whether there is any fuel.

Runway information:
04/22 - 10499 x 148 feet< - >3200 x 45 meters

Recent METARs:
LBBG 151730Z 09010KT 5000 BR SCT033 BKN049 09/09 Q1018 NOSIG
LBBG 151800Z 09010KT 4900 BR SCT049 09/08 Q1017 NOSIG
LBBG 151830Z 09011KT 5000 BR FEW049 09/09 Q1017 NOSIG

Airport on the map: